Terminal Aerodrome Forecast
Issued by NWS Cleveland, OH

Home | Current Version | Previous Version | Text Only | Print | Product List | Glossary On
Versions: 1 2 3 4 5 6 7 8 9 10 11 12 13 14 15 16 17 18 19 20 21 22 23 24 25 26 27 28 29 30 31 32 33 34 35 36 37 38 39 40
000
FTUS41 KCLE 260558 CCA
TAFYNG
TAF COR
KYNG 260558Z 2606/2706 13008KT 4SM -SHRA BKN035 OVC050
     FM260700 16010KT 4SM -SHRA BR SCT015 OVC025
      TEMPO 2607/2610 2SM -SHRA BR SCT008 OVC015
     FM261000 18012G22KT P6SM SCT008 OVC012
     FM261400 23010KT P6SM VCSH OVC008
     FM261700 28012G22KT P6SM VCSH OVC008
     FM262300 28010G18KT P6SM BKN025=

USA.gov is the U.S. government's official web portal to all federal, state and local government web resources and services.